»·PEaware :: N65GP KCOS-KDEN

N65GP :: KCOS-KDEN

FLIGHT INFORMATION

Flight Status: Arrived
Operator: Privately registered:
United States
More flights under this callsign
Pilot: Tom L. (6372)
Aircraft: CESSNA 182 SKYLANE
(C182)
More flights by this aircraft type
Origin: KCOS City Of Colorado Springs Mun
United States
Destination: KDEN Denver Intl
United States
More flights between these airports :: More routes between these airports
Route: +COS6 XBGIN FQF
File this flight plan on PilotEdge
Remarks:
Altitude:
(Current/Filed)
9,000ft
Speed:
(Current/Filed)
135kts
Departed: 12-May-18 10:33 AM
Arrived: 12-May-18 11:09 AM
Distance/Time
Traveled:
63nm/0:36
Distance/Time
To Go:
Arrived

Flight Plot

Page will automatically refresh every two minutes.

Flight plan parsing failed; only flown route is shown


Map Options




Map Legend


Flown Route
Filed Route
Departure Airport
Arrival Airport
Navaid (VOR, NDB)
Fix

Horizontal Profiles

Position Reports

Time Latitude Longitude Heading Altitude Ground
Speed
12-May-18 10:03 38.806655 -104.719048 270 6187ft 0kts
12-May-18 10:04 38.806655 -104.719050 270 6187ft 0kts
12-May-18 10:05 38.806655 -104.719052 270 6187ft 0kts
12-May-18 10:06 38.806655 -104.719056 270 6187ft 0kts
12-May-18 10:07 38.806655 -104.719060 270 6187ft 0kts
12-May-18 10:08 38.806655 -104.719068 270 6187ft 0kts
12-May-18 10:09 38.806655 -104.719078 270 6187ft 0kts
12-May-18 10:10 38.806655 -104.719085 270 6187ft 0kts
12-May-18 10:11 38.806655 -104.719088 270 6187ft 0kts
12-May-18 10:12 38.806655 -104.719092 270 6187ft 0kts
12-May-18 10:13 38.806655 -104.719096 270 6187ft 0kts
12-May-18 10:14 38.806655 -104.719099 270 6187ft 0kts
12-May-18 10:15 38.806655 -104.719103 270 6187ft 0kts
12-May-18 10:16 38.806655 -104.719107 270 6187ft 0kts
12-May-18 10:17 38.806655 -104.719110 270 6187ft 0kts
12-May-18 10:18 38.806655 -104.719114 270 6187ft 0kts
12-May-18 10:19 38.806655 -104.719118 270 6187ft 0kts
12-May-18 10:20 38.806655 -104.719121 270 6187ft 0kts
12-May-18 10:21 38.806655 -104.719125 270 6187ft 0kts
12-May-18 10:22 38.806655 -104.719129 270 6187ft 0kts
12-May-18 10:23 38.806833 -104.719300 8 6187ft 2kts
12-May-18 10:24 38.807539 -104.718150 37 6187ft 8kts
12-May-18 10:25 38.810782 -104.718106 0 6187ft 13kts
12-May-18 10:26 38.812934 -104.716926 35 6187ft 9kts
12-May-18 10:27 38.819404 -104.716872 4 6187ft 16kts
12-May-18 10:28 38.821134 -104.716725 358 6187ft 7kts
12-May-18 10:29 38.821611 -104.716721 4 6187ft 7kts
12-May-18 10:30 38.821806 -104.716665 28 6187ft 0kts
12-May-18 10:31 38.821809 -104.716663 28 6187ft 0kts
12-May-18 10:32 38.820415 -104.715822 180 6187ft 38kts
12-May-18 10:33 38.801734 -104.716090 170 6601ft 73kts
12-May-18 10:34 38.778475 -104.717006 179 7165ft 87kts
12-May-18 10:35 38.752055 -104.717070 177 7691ft 93kts
12-May-18 10:36 38.725169 -104.719752 176 8155ft 101kts
12-May-18 10:37 38.695842 -104.720543 177 8680ft 111kts
12-May-18 10:38 38.664496 -104.711066 109 9159ft 133kts
12-May-18 10:39 38.688345 -104.690287 2 9632ft 118kts
12-May-18 10:40 38.725096 -104.688923 2 9991ft 153kts
12-May-18 10:41 38.767298 -104.687409 5 9961ft 153kts
12-May-18 10:42 38.807789 -104.685707 1 9993ft 143kts
12-May-18 10:43 38.849964 -104.683440 4 9976ft 159kts
12-May-18 10:44 38.891847 -104.681372 2 9994ft 149kts
12-May-18 10:45 38.934248 -104.679356 3 9982ft 155kts
12-May-18 10:46 38.974815 -104.677383 355 10010ft 142kts
12-May-18 10:47 39.013659 -104.675437 2 10006ft 137kts
12-May-18 10:48 39.051469 -104.673208 7 10001ft 134kts
12-May-18 10:49 39.087862 -104.662549 13 10002ft 134kts
12-May-18 10:50 39.125589 -104.660196 359 10003ft 137kts
12-May-18 10:51 39.164089 -104.660590 359 10001ft 138kts
12-May-18 10:52 39.202511 -104.660936 359 10000ft 138kts
12-May-18 10:53 39.241102 -104.661290 359 10000ft 138kts
12-May-18 10:54 39.279256 -104.661644 359 9999ft 138kts
12-May-18 10:55 39.317706 -104.662003 359 9998ft 138kts
12-May-18 10:56 39.356296 -104.662368 359 9995ft 138kts
12-May-18 10:57 39.394804 -104.662732 359 9991ft 138kts
12-May-18 10:58 39.433303 -104.663092 359 9988ft 138kts
12-May-18 10:59 39.471842 -104.665174 355 9986ft 138kts
12-May-18 11:00 39.510306 -104.664399 2 9984ft 138kts
12-May-18 11:01 39.548899 -104.663000 1 9982ft 138kts
12-May-18 11:02 39.587385 -104.663292 359 9978ft 138kts
12-May-18 11:03 39.628583 -104.662950 1 9438ft 158kts
12-May-18 11:04 39.673262 -104.662461 1 8625ft 158kts
12-May-18 11:05 39.716411 -104.662938 358 7927ft 147kts
12-May-18 11:06 39.756387 -104.659631 3 7171ft 140kts
12-May-18 11:07 39.794915 -104.663358 3 6196ft 134kts
12-May-18 11:08 39.827929 -104.660590 6 5512ft 93kts
12-May-18 11:09 39.842954 -104.660321 1 5434ft 26kts
12-May-18 11:10 39.848881 -104.661434 331 5434ft 14kts
12-May-18 11:11 39.848109 -104.662645 174 5434ft 16kts
12-May-18 11:12 39.848109 -104.662645 174 5434ft 16kts
12-May-18 11:13 39.848109 -104.662645 174 5434ft 16kts
12-May-18 11:14 39.848109 -104.662645 174 5434ft 16kts
12-May-18 11:15 39.848109 -104.662645 174 5434ft 16kts
12-May-18 11:16 39.848109 -104.662645 174 5434ft 16kts
12-May-18 11:17 39.848109 -104.662645 174 5434ft 16kts
12-May-18 11:18 39.848109 -104.662645 174 5434ft 16kts
12-May-18 11:19 39.848109 -104.662645 174 5434ft 16kts
12-May-18 11:20 39.848109 -104.662645 174 5434ft 16kts
12-May-18 11:21 39.848109 -104.662645 174 5434ft 16kts
12-May-18 11:22 39.848109 -104.662645 174 5434ft 16kts
12-May-18 11:23 39.848109 -104.662645 174 5434ft 16kts
12-May-18 11:24 39.848109 -104.662645 174 5434ft 16kts

Navigation Log

Ident Type
Flight plan parsing failed, navigation log unavailable